Time;durP1;ratioP1;P1;durP2;ratioP2;P2;SDS_P1;SDS_P2;PMS_P1;PMS_P2;Temp;Humidity;BMP_temperature;BMP_pressure;BME280_temperature;BME280_humidity;BME280_pressure;Samples;Min_cycle;Max_cycle;Signal;HPM_P1;HPM_P2
2021/05/22 00:00:23;;;;;;;3.00;1.23;;;12.00;99.90;;;;;;5072173;28;20570;-72
2021/05/22 00:02:49;;;;;;;3.27;1.40;;;11.90;99.90;;;;;;5072661;28;20348;-74
2021/05/22 00:05:16;;;;;;;3.93;1.40;;;12.00;99.90;;;;;;5072213;28;20214;-73
2021/05/22 00:07:43;;;;;;;3.57;1.47;;;12.00;99.90;;;;;;5072179;28;20202;-73
2021/05/22 00:10:13;;;;;;;3.08;1.52;;;11.90;99.90;;;;;;5072458;28;20206;-72
2021/05/22 00:12:41;;;;;;;2.47;1.50;;;11.80;99.90;;;;;;5072333;28;20202;-73
2021/05/22 00:15:10;;;;;;;4.17;1.50;;;11.90;99.90;;;;;;5071975;28;20207;-72
2021/05/22 00:17:37;;;;;;;2.23;1.60;;;11.90;99.90;;;;;;5064902;28;20199;-74
2021/05/22 00:20:04;;;;;;;3.23;1.50;;;11.90;99.90;;;;;;5072583;28;20206;-72
2021/05/22 00:22:31;;;;;;;5.27;1.70;;;11.90;99.90;;;;;;5072725;28;20234;-72
2021/05/22 00:24:58;;;;;;;6.30;1.37;;;11.80;99.90;;;;;;5072229;28;20222;-71
2021/05/22 00:27:25;;;;;;;4.33;1.60;;;11.80;99.90;;;;;;5072071;28;20687;-72
2021/05/22 00:29:52;;;;;;;2.37;1.13;;;11.80;99.90;;;;;;5071610;28;20206;-72
2021/05/22 00:32:18;;;;;;;4.70;1.57;;;11.80;99.90;;;;;;5071858;28;20202;-73
2021/05/22 00:34:45;;;;;;;6.07;2.00;;;11.70;99.90;;;;;;5072075;28;20260;-73
2021/05/22 00:37:11;;;;;;;3.63;1.63;;;11.60;99.90;;;;;;5071446;28;20203;-74
2021/05/22 00:39:38;;;;;;;2.90;1.60;;;11.60;99.90;;;;;;5072068;28;20203;-73
2021/05/22 00:42:05;;;;;;;4.63;1.30;;;11.50;99.90;;;;;;5071500;28;20225;-72
2021/05/22 00:44:33;;;;;;;2.77;1.40;;;11.60;99.90;;;;;;5071771;28;20699;-73
2021/05/22 00:47:00;;;;;;;1.87;1.60;;;11.50;99.90;;;;;;5070884;28;20740;-72
2021/05/22 00:49:26;;;;;;;4.13;1.90;;;11.60;99.90;;;;;;5071398;28;20213;-75
2021/05/22 00:51:53;;;;;;;4.97;1.60;;;11.60;99.90;;;;;;5071684;28;20213;-73
2021/05/22 00:54:20;;;;;;;1.57;1.17;;;11.70;99.90;;;;;;5071231;28;20202;-74
2021/05/22 00:56:48;;;;;;;3.00;1.60;;;11.70;99.90;;;;;;5071590;28;20592;-74
2021/05/22 00:59:18;;;;;;;4.43;1.77;;;11.70;99.90;;;;;;5070638;28;20203;-74
2021/05/22 01:01:45;;;;;;;3.43;1.13;;;11.70;99.90;;;;;;5071151;28;20567;-73
2021/05/22 01:04:20;;;;;;;5.87;2.93;;;11.50;99.90;;;;;;5071071;28;20198;-75
2021/05/22 01:06:46;;;;;;;3.43;2.17;;;11.50;99.90;;;;;;5071353;28;20209;-73
2021/05/22 01:09:16;;;;;;;8.63;1.80;;;11.50;99.90;;;;;;5070962;28;20198;-73
2021/05/22 01:11:45;;;;;;;1.80;0.90;;;11.40;99.90;;;;;;5071076;28;20288;-74
2021/05/22 01:14:16;;;;;;;3.77;1.63;;;11.50;99.90;;;;;;5070703;28;20214;-74
2021/05/22 01:16:46;;;;;;;5.97;1.63;;;11.40;99.90;;;;;;5071579;28;20202;-73
2021/05/22 01:19:20;;;;;;;2.13;1.43;;;11.50;99.90;;;;;;5070799;28;20218;-73
2021/05/22 01:21:46;;;;;;;5.47;1.63;;;11.40;99.90;;;;;;5071056;28;20206;-73
2021/05/22 01:24:15;;;;;;;2.60;1.60;;;11.40;99.90;;;;;;5059887;28;20215;-72
2021/05/22 01:26:43;;;;;;;2.77;1.73;;;11.40;99.90;;;;;;5067619;28;20680;-73
2021/05/22 01:29:10;;;;;;;6.97;1.73;;;11.40;99.90;;;;;;5070482;28;20215;-72
2021/05/22 01:31:37;;;;;;;6.67;2.27;;;11.40;99.90;;;;;;5070948;28;20210;-74
2021/05/22 01:34:03;;;;;;;3.20;1.83;;;11.30;99.90;;;;;;5071195;28;20215;-72
2021/05/22 01:36:30;;;;;;;3.80;1.90;;;11.40;99.90;;;;;;5071066;28;20673;-73
2021/05/22 01:38:56;;;;;;;3.33;1.40;;;11.40;99.90;;;;;;5071071;28;20572;-72
2021/05/22 01:41:23;;;;;;;5.93;2.10;;;11.50;99.90;;;;;;5070509;28;20214;-72
2021/05/22 01:43:54;;;;;;;3.80;1.60;;;11.40;99.90;;;;;;5070466;28;20743;-72
2021/05/22 01:46:24;;;;;;;2.03;1.63;;;11.50;99.90;;;;;;5070238;28;20673;-72
2021/05/22 01:48:51;;;;;;;2.80;1.60;;;11.60;99.90;;;;;;5070623;28;20240;-73
2021/05/22 01:51:20;;;;;;;2.50;2.13;;;11.60;99.90;;;;;;5070163;28;20206;-72
2021/05/22 01:53:47;;;;;;;4.17;1.83;;;11.60;99.90;;;;;;5070664;28;20234;-73
2021/05/22 01:56:15;;;;;;;4.97;2.13;;;11.60;99.90;;;;;;5070015;28;20202;-72
2021/05/22 01:58:42;;;;;;;4.57;2.00;;;11.50;99.90;;;;;;5070196;28;20206;-72
2021/05/22 02:01:12;;;;;;;3.43;1.70;;;11.40;99.90;;;;;;5070131;28;20206;-72
2021/05/22 02:03:42;;;;;;;4.57;1.70;;;11.50;99.90;;;;;;5070438;28;20233;-72
2021/05/22 02:06:16;;;;;;;2.87;1.60;;;11.60;99.90;;;;;;5069886;28;20677;-72
2021/05/22 02:08:45;;;;;;;2.97;2.20;;;11.60;99.90;;;;;;5070703;28;20214;-72
2021/05/22 02:11:13;;;;;;;1.50;1.40;;;11.60;99.90;;;;;;5069836;28;20205;-71
2021/05/22 02:13:40;;;;;;;4.77;1.70;;;11.60;99.90;;;;;;5070342;28;20211;-71
2021/05/22 02:16:09;;;;;;;4.57;2.10;;;11.50;99.90;;;;;;5069865;28;20665;-72
2021/05/22 02:18:37;;;;;;;4.80;2.00;;;11.50;99.90;;;;;;5060291;28;20209;-71
2021/05/22 02:21:06;;;;;;;3.73;1.50;;;11.50;99.90;;;;;;5066857;28;20214;-72
2021/05/22 02:23:39;;;;;;;5.80;2.20;;;11.40;99.90;;;;;;5070525;28;20226;-71
2021/05/22 02:26:07;;;;;;;4.40;1.60;;;11.40;99.90;;;;;;5069524;28;20214;-71
2021/05/22 02:28:36;;;;;;;3.20;1.53;;;11.50;99.90;;;;;;5070252;28;20233;-72
2021/05/22 02:31:03;;;;;;;3.03;1.80;;;11.50;99.90;;;;;;5070371;28;20206;-71
2021/05/22 02:33:31;;;;;;;4.77;1.87;;;11.60;99.90;;;;;;5070151;28;20202;-72
2021/05/22 02:35:59;;;;;;;2.83;1.50;;;11.40;99.90;;;;;;5070674;28;20202;-72
2021/05/22 02:38:29;;;;;;;2.93;1.77;;;11.30;99.90;;;;;;5070110;28;20236;-72
2021/05/22 02:41:00;;;;;;;5.10;1.63;;;11.30;99.90;;;;;;5070210;28;20224;-71
2021/05/22 02:43:28;;;;;;;6.77;1.90;;;11.30;99.90;;;;;;5069424;28;20763;-71
2021/05/22 02:45:55;;;;;;;4.07;2.27;;;11.20;99.90;;;;;;5070330;28;20210;-71
2021/05/22 02:48:23;;;;;;;4.00;1.63;;;11.20;99.90;;;;;;5069966;28;20209;-72
2021/05/22 02:50:51;;;;;;;4.00;1.70;;;11.10;99.90;;;;;;5069804;28;20202;-71
2021/05/22 02:53:23;;;;;;;3.93;2.00;;;11.10;99.90;;;;;;5069810;28;20210;-73
2021/05/22 02:55:51;;;;;;;3.73;1.23;;;11.10;99.90;;;;;;5060947;28;20210;-72
2021/05/22 02:58:18;;;;;;;3.50;2.43;;;11.10;99.90;;;;;;5069434;28;20206;-71
2021/05/22 03:00:45;;;;;;;6.53;1.87;;;11.10;99.90;;;;;;5070012;28;20256;-72
2021/05/22 03:03:12;;;;;;;5.13;1.80;;;11.20;99.90;;;;;;5069411;28;20713;-72
2021/05/22 03:05:40;;;;;;;6.73;2.10;;;11.30;99.90;;;;;;5069718;28;20202;-73
2021/05/22 03:08:07;;;;;;;3.47;1.43;;;11.10;99.90;;;;;;5069557;28;20217;-72
2021/05/22 03:10:36;;;;;;;7.53;2.93;;;11.00;99.90;;;;;;5072812;28;20706;-72
2021/05/22 03:13:02;;;;;;;6.20;1.73;;;11.10;99.90;;;;;;5073893;28;20570;-73
2021/05/22 03:15:29;;;;;;;6.23;2.10;;;11.20;99.90;;;;;;5073777;28;20213;-71
2021/05/22 03:17:56;;;;;;;7.13;2.13;;;11.20;99.90;;;;;;5073341;28;20684;-72
2021/05/22 03:20:22;;;;;;;5.27;2.00;;;11.20;99.90;;;;;;5073199;28;20233;-71
2021/05/22 03:22:49;;;;;;;3.57;2.30;;;11.10;99.90;;;;;;5073061;28;20233;-71
2021/05/22 03:25:15;;;;;;;2.93;1.73;;;11.10;99.90;;;;;;5072855;28;20217;-71
2021/05/22 03:27:42;;;;;;;4.60;1.70;;;11.10;99.90;;;;;;5073063;28;20214;-72
2021/05/22 03:30:10;;;;;;;6.03;2.93;;;11.10;99.90;;;;;;5072872;28;20206;-71
2021/05/22 03:32:37;;;;;;;2.00;1.67;;;11.10;99.90;;;;;;5073406;28;20217;-72
2021/05/22 03:35:05;;;;;;;3.43;2.30;;;11.00;99.90;;;;;;5072972;28;20700;-72
2021/05/22 03:37:32;;;;;;;4.80;2.60;;;11.00;99.90;;;;;;5073233;28;20206;-73
2021/05/22 03:39:58;;;;;;;2.43;1.90;;;11.00;99.90;;;;;;5073272;28;20280;-73
2021/05/22 03:42:25;;;;;;;1.70;1.60;;;11.20;99.90;;;;;;5072858;28;20234;-73
2021/05/22 03:44:52;;;;;;;4.07;2.37;;;11.20;99.90;;;;;;5072779;28;20565;-73
2021/05/22 03:47:19;;;;;;;4.87;2.77;;;11.20;99.90;;;;;;5072698;28;20207;-72
2021/05/22 03:49:45;;;;;;;2.60;1.60;;;11.20;99.90;;;;;;5072766;28;20206;-72
2021/05/22 03:52:12;;;;;;;6.27;1.57;;;11.20;99.90;;;;;;5071781;28;20206;-72
2021/05/22 03:54:38;;;;;;;2.70;2.50;;;11.00;99.90;;;;;;5072755;28;20572;-73
2021/05/22 03:57:05;;;;;;;5.60;3.70;;;11.10;99.90;;;;;;5072227;28;20203;-72
2021/05/22 03:59:32;;;;;;;5.43;2.57;;;11.20;99.90;;;;;;5072980;28;20674;-71
2021/05/22 04:01:59;;;;;;;3.27;1.87;;;11.10;99.90;;;;;;5072726;28;20217;-72
2021/05/22 04:04:26;;;;;;;2.60;2.40;;;11.10;99.90;;;;;;5071916;28;20206;-72
2021/05/22 04:06:52;;;;;;;3.70;2.40;;;11.10;99.90;;;;;;5072399;28;20615;-72
2021/05/22 04:09:19;;;;;;;2.03;1.87;;;11.00;99.90;;;;;;5072302;28;20206;-72
2021/05/22 04:11:45;;;;;;;4.83;2.43;;;11.10;99.90;;;;;;5072709;28;20210;-72
2021/05/22 04:14:12;;;;;;;2.00;1.80;;;11.00;99.90;;;;;;5071820;28;20205;-72
2021/05/22 04:16:38;;;;;;;4.03;1.67;;;11.10;99.90;;;;;;5072274;28;20214;-72
2021/05/22 04:19:06;;;;;;;3.33;1.80;;;11.20;99.90;;;;;;5066791;28;20600;-72
2021/05/22 04:21:32;;;;;;;3.63;2.50;;;11.20;99.90;;;;;;5072403;28;20229;-72
2021/05/22 04:23:58;;;;;;;4.53;2.37;;;11.00;99.90;;;;;;5072338;28;20241;-73
2021/05/22 04:26:25;;;;;;;3.40;2.10;;;11.00;99.90;;;;;;5071704;28;20661;-72
2021/05/22 04:28:51;;;;;;;2.50;2.23;;;11.10;99.90;;;;;;5072384;28;20206;-72
2021/05/22 04:31:18;;;;;;;3.63;2.13;;;11.00;99.90;;;;;;5071540;28;20666;-73
2021/05/22 04:33:44;;;;;;;3.23;2.50;;;11.00;99.90;;;;;;5071951;28;20279;-73
2021/05/22 04:36:12;;;;;;;3.90;3.50;;;11.10;99.90;;;;;;5071359;28;20281;-73
2021/05/22 04:38:38;;;;;;;3.43;2.77;;;11.10;99.90;;;;;;5072186;28;20552;-73
2021/05/22 04:41:05;;;;;;;5.23;2.67;;;11.10;99.90;;;;;;5071486;28;20210;-73
2021/05/22 04:43:31;;;;;;;4.00;2.57;;;11.20;99.90;;;;;;5072060;28;20233;-73
2021/05/22 04:45:58;;;;;;;3.63;2.20;;;11.30;99.90;;;;;;5072116;28;20297;-72
2021/05/22 04:48:24;;;;;;;4.73;2.30;;;11.40;99.90;;;;;;5070718;28;20260;-72
2021/05/22 04:50:51;;;;;;;5.63;2.70;;;11.40;99.90;;;;;;5071674;28;20206;-72
2021/05/22 04:53:18;;;;;;;3.73;2.30;;;11.40;99.90;;;;;;5070857;28;20209;-73
2021/05/22 04:55:45;;;;;;;4.70;1.97;;;11.50;99.90;;;;;;5071519;28;20735;-71
2021/05/22 04:58:11;;;;;;;3.50;2.30;;;11.70;99.90;;;;;;5070813;28;20217;-72
2021/05/22 05:00:38;;;;;;;3.07;1.80;;;11.80;99.90;;;;;;5071654;28;20263;-73
2021/05/22 05:03:04;;;;;;;5.70;2.13;;;11.90;99.90;;;;;;5071081;28;20234;-72
2021/05/22 05:05:31;;;;;;;3.67;1.90;;;12.10;99.90;;;;;;5071154;28;20206;-72
2021/05/22 05:07:57;;;;;;;3.17;2.33;;;12.10;99.90;;;;;;5071911;28;20206;-73
2021/05/22 05:10:25;;;;;;;4.97;1.93;;;12.10;99.90;;;;;;5070699;28;20214;-73
2021/05/22 05:12:52;;;;;;;5.00;2.50;;;12.10;99.90;;;;;;5071328;28;20213;-73
2021/05/22 05:15:19;;;;;;;4.30;2.00;;;12.20;99.90;;;;;;5070592;28;20210;-73
2021/05/22 05:17:46;;;;;;;4.50;2.43;;;12.10;99.90;;;;;;5069938;28;20202;-73
2021/05/22 05:20:13;;;;;;;2.20;1.67;;;12.20;99.90;;;;;;5061230;28;20218;-75
2021/05/22 05:22:39;;;;;;;5.80;2.23;;;12.30;99.90;;;;;;5068162;28;20279;-74
2021/05/22 05:25:08;;;;;;;5.80;1.87;;;12.40;99.90;;;;;;5070718;28;20209;-74
2021/05/22 05:27:35;;;;;;;6.13;1.57;;;12.40;99.90;;;;;;5070755;28;20210;-74
2021/05/22 05:30:02;;;;;;;5.03;1.80;;;12.40;99.90;;;;;;5071118;28;20202;-75
2021/05/22 05:32:28;;;;;;;5.23;2.07;;;12.30;99.90;;;;;;5060658;28;20222;-77
2021/05/22 05:34:55;;;;;;;5.03;2.50;;;12.40;99.90;;;;;;5071179;28;20214;-76
2021/05/22 05:37:22;;;;;;;6.03;2.10;;;12.30;99.90;;;;;;5070505;28;20217;-76
2021/05/22 05:39:48;;;;;;;4.97;2.50;;;12.40;99.90;;;;;;5070805;28;20206;-75
2021/05/22 05:42:15;;;;;;;3.73;2.20;;;12.30;99.90;;;;;;5070225;28;20231;-75
2021/05/22 05:44:42;;;;;;;4.30;2.67;;;12.30;99.90;;;;;;5070451;28;20259;-77
2021/05/22 05:47:09;;;;;;;7.47;3.00;;;12.40;99.90;;;;;;5070437;28;20210;-76
2021/05/22 05:49:36;;;;;;;4.80;2.40;;;12.40;99.90;;;;;;5070580;28;20264;-78
2021/05/22 05:52:03;;;;;;;7.07;3.50;;;12.50;99.90;;;;;;5070685;28;20206;-75
2021/05/22 05:54:30;;;;;;;7.47;4.10;;;12.60;99.90;;;;;;5070867;28;20362;-76
2021/05/22 05:56:56;;;;;;;5.23;3.27;;;12.70;99.90;;;;;;5070413;28;20588;-76
2021/05/22 05:59:23;;;;;;;5.95;2.90;;;12.70;99.90;;;;;;5070103;28;20210;-77
2021/05/22 06:01:50;;;;;;;3.93;3.03;;;12.80;99.90;;;;;;5070340;28;20260;-77
2021/05/22 06:04:16;;;;;;;6.53;3.53;;;13.00;99.90;;;;;;5070199;28;20233;-76
2021/05/22 06:06:43;;;;;;;6.60;3.20;;;12.90;99.90;;;;;;5070771;28;20206;-77
2021/05/22 06:09:09;;;;;;;3.40;2.80;;;12.90;99.90;;;;;;5062971;28;20244;-77
2021/05/22 06:11:37;;;;;;;5.17;2.30;;;12.90;99.90;;;;;;5070328;28;20587;-76
2021/05/22 06:14:08;;;;;;;4.20;2.40;;;12.90;99.90;;;;;;5070238;28;20297;-76
2021/05/22 06:16:35;;;;;;;10.20;3.00;;;13.10;99.90;;;;;;5070185;28;20240;-76
2021/05/22 06:19:03;;;;;;;4.73;3.43;;;13.20;99.90;;;;;;5069684;28;20220;-77
2021/05/22 06:21:30;;;;;;;7.40;2.55;;;13.20;99.90;;;;;;5059981;28;20206;-76
2021/05/22 06:23:56;;;;;;;5.75;3.22;;;13.30;99.90;;;;;;5070547;28;20238;-75
2021/05/22 06:26:23;;;;;;;7.53;3.00;;;13.30;99.90;;;;;;5056188;28;20253;-76
2021/05/22 06:28:49;;;;;;;5.68;2.95;;;13.40;99.90;;;;;;5070515;28;20217;-75
2021/05/22 06:31:16;;;;;;;8.00;3.10;;;13.60;99.90;;;;;;5069497;28;20255;-75
2021/05/22 06:33:42;;;;;;;6.07;2.80;;;13.80;99.90;;;;;;5070276;28;20591;-77
2021/05/22 06:36:10;;;;;;;7.35;2.83;;;13.70;99.90;;;;;;5069737;28;20206;-77
2021/05/22 06:38:36;;;;;;;5.63;2.55;;;13.40;99.90;;;;;;5070229;28;20202;-76
2021/05/22 06:41:03;;;;;;;6.18;2.80;;;13.50;99.90;;;;;;5070110;28;20256;-76
2021/05/22 06:43:30;;;;;;;6.03;2.72;;;13.50;99.90;;;;;;5070372;28;20707;-78
2021/05/22 06:46:00;;;;;;;8.90;3.00;;;13.50;99.90;;;;;;5073922;28;20206;-75
2021/05/22 06:48:27;;;;;;;4.88;2.03;;;13.50;99.90;;;;;;5073803;28;20201;-75
2021/05/22 06:50:54;;;;;;;7.18;2.97;;;13.50;99.90;;;;;;5074348;28;20293;-76
2021/05/22 06:53:22;;;;;;;5.13;3.00;;;13.60;99.90;;;;;;5073405;28;20206;-76
2021/05/22 06:55:48;;;;;;;7.25;2.45;;;13.70;99.90;;;;;;5074096;28;20202;-78
2021/05/22 06:58:15;;;;;;;5.50;2.28;;;13.80;99.90;;;;;;5073595;28;20206;-79
2021/05/22 07:00:41;;;;;;;7.53;2.15;;;13.70;99.90;;;;;;5073714;28;20685;-76
2021/05/22 07:03:08;;;;;;;7.18;1.98;;;13.60;99.90;;;;;;5073042;28;20275;-78
2021/05/22 07:05:34;;;;;;;8.38;2.75;;;13.40;99.90;;;;;;5072502;28;20213;-74
2021/05/22 07:08:02;;;;;;;4.18;2.00;;;14.00;99.90;;;;;;5072437;28;20211;-72
2021/05/22 07:10:30;;;;;;;5.60;3.05;;;14.40;99.90;;;;;;5073664;28;20255;-72
2021/05/22 07:12:56;;;;;;;5.70;2.55;;;14.50;99.90;;;;;;5073796;28;20210;-72
2021/05/22 07:15:23;;;;;;;3.78;2.40;;;14.60;99.90;;;;;;5073137;28;20259;-71
2021/05/22 07:17:50;;;;;;;9.30;2.80;;;14.40;99.90;;;;;;5073544;28;20209;-71
2021/05/22 07:20:16;;;;;;;4.60;2.95;;;14.20;99.90;;;;;;5073044;28;20209;-73
2021/05/22 07:22:43;;;;;;;5.85;2.78;;;14.20;99.90;;;;;;5072954;28;20229;-71
2021/05/22 07:25:11;;;;;;;4.78;2.10;;;14.30;99.90;;;;;;5072993;28;20229;-73
2021/05/22 07:27:38;;;;;;;6.07;2.22;;;14.20;99.90;;;;;;5072965;28;20210;-72
2021/05/22 07:30:07;;;;;;;11.68;2.72;;;14.10;99.90;;;;;;5072990;28;20256;-71
2021/05/22 07:32:34;;;;;;;6.22;2.55;;;14.40;99.90;;;;;;5073259;28;20210;-72
2021/05/22 07:35:00;;;;;;;13.55;2.50;;;14.50;99.90;;;;;;5073633;28;20287;-71
2021/05/22 07:37:27;;;;;;;6.85;1.90;;;14.40;99.90;;;;;;5072991;28;20202;-71
2021/05/22 07:39:56;;;;;;;13.10;4.43;;;14.70;99.90;;;;;;5072879;28;20260;-70
2021/05/22 07:42:24;;;;;;;11.68;2.58;;;15.10;99.90;;;;;;5072516;28;20845;-71
2021/05/22 07:44:51;;;;;;;6.50;3.22;;;15.70;99.90;;;;;;5072773;28;20210;-70
2021/05/22 07:47:19;;;;;;;8.65;3.28;;;16.00;99.90;;;;;;5072786;28;20210;-70
2021/05/22 07:49:45;;;;;;;5.60;2.20;;;15.80;99.90;;;;;;5072591;28;20210;-69
2021/05/22 07:52:12;;;;;;;11.07;2.60;;;15.50;99.90;;;;;;5072812;28;20210;-69
2021/05/22 07:54:39;;;;;;;14.52;2.97;;;16.30;99.90;;;;;;5072195;28;20742;-73
2021/05/22 07:57:08;;;;;;;10.20;2.53;;;16.60;99.90;;;;;;5072480;28;20673;-73
2021/05/22 07:59:34;;;;;;;10.00;2.67;;;16.70;99.90;;;;;;5072644;28;20263;-74
2021/05/22 08:02:03;;;;;;;8.00;2.17;;;17.20;99.90;;;;;;5072990;28;20206;-71
2021/05/22 08:04:29;;;;;;;10.98;2.92;;;17.10;99.90;;;;;;5072933;28;20367;-73
2021/05/22 08:06:56;;;;;;;6.05;3.00;;;17.20;99.90;;;;;;5072832;28;20210;-73
2021/05/22 08:09:22;;;;;;;12.32;3.00;;;17.00;99.90;;;;;;5072330;28;20209;-73
2021/05/22 08:11:49;;;;;;;10.27;2.78;;;18.00;99.90;;;;;;5072755;28;20678;-72
2021/05/22 08:14:16;;;;;;;9.20;3.13;;;17.50;99.90;;;;;;5072065;28;20202;-73
2021/05/22 08:16:43;;;;;;;12.82;3.45;;;17.10;99.90;;;;;;5072250;28;20234;-72
2021/05/22 08:19:12;;;;;;;5.18;2.65;;;17.20;99.90;;;;;;5071871;28;20584;-72
2021/05/22 08:21:39;;;;;;;9.43;2.22;;;17.00;99.90;;;;;;5067661;28;20198;-71
2021/05/22 08:24:07;;;;;;;12.63;2.45;;;17.20;99.90;;;;;;5071316;28;20244;-71
2021/05/22 08:26:34;;;;;;;6.88;2.45;;;16.70;99.90;;;;;;5072215;28;20689;-72
2021/05/22 08:29:01;;;;;;;40.03;28.48;;;17.00;99.90;;;;;;5072298;28;20229;-72
2021/05/22 08:31:28;;;;;;;7.55;3.70;;;16.80;99.90;;;;;;5071809;28;20674;-73
2021/05/22 08:33:54;;;;;;;6.80;2.83;;;16.90;99.90;;;;;;5072325;28;20209;-72
2021/05/22 08:36:22;;;;;;;4.50;1.75;;;16.90;99.90;;;;;;5071649;28;20202;-73
2021/05/22 08:38:48;;;;;;;8.35;2.58;;;16.70;99.90;;;;;;5072227;28;20260;-73
2021/05/22 08:41:16;;;;;;;7.28;2.65;;;16.50;99.90;;;;;;5071271;28;20213;-72
2021/05/22 08:43:43;;;;;;;6.13;2.30;;;16.30;99.90;;;;;;5071455;28;20226;-72
2021/05/22 08:46:11;;;;;;;7.00;2.95;;;16.20;99.90;;;;;;5071433;28;20221;-72
2021/05/22 08:48:38;;;;;;;5.00;2.42;;;15.90;99.90;;;;;;5072123;28;20209;-72
2021/05/22 08:51:06;;;;;;;10.52;2.40;;;15.80;99.90;;;;;;5058206;28;20210;-72
2021/05/22 08:53:33;;;;;;;3.85;2.53;;;15.70;99.90;;;;;;5071322;28;20202;-72
2021/05/22 08:56:00;;;;;;;9.43;3.13;;;15.70;99.90;;;;;;5072058;28;20226;-72
2021/05/22 08:58:26;;;;;;;6.30;2.08;;;15.70;99.90;;;;;;5070393;28;20558;-73
2021/05/22 09:00:53;;;;;;;12.65;3.20;;;15.70;99.90;;;;;;5071933;28;20218;-73
2021/05/22 09:03:21;;;;;;;5.00;2.10;;;15.60;99.90;;;;;;5071210;28;20262;-74
2021/05/22 09:05:47;;;;;;;6.70;2.25;;;15.80;99.90;;;;;;5071478;28;20203;-74
2021/05/22 09:08:15;;;;;;;5.95;2.15;;;16.00;99.90;;;;;;5070616;28;20210;-74
2021/05/22 09:10:45;;;;;;;6.10;3.03;;;17.30;99.90;;;;;;5070938;28;20738;-74
2021/05/22 09:13:14;;;;;;;4.78;2.15;;;17.60;99.90;;;;;;5071208;28;20249;-74
2021/05/22 09:15:41;;;;;;;4.75;1.52;;;18.70;99.90;;;;;;5071041;28;20208;-74
2021/05/22 09:18:11;;;;;;;4.43;1.75;;;19.40;99.90;;;;;;5071156;28;20595;-73
2021/05/22 09:20:39;;;;;;;5.40;1.80;;;19.80;99.90;;;;;;5071307;28;20206;-73
2021/05/22 09:23:07;;;;;;;4.90;2.50;;;20.50;99.90;;;;;;5070990;28;20256;-72
2021/05/22 09:25:35;;;;;;;7.95;2.42;;;20.00;99.90;;;;;;5066021;28;20213;-73
2021/05/22 09:28:04;;;;;;;5.93;2.05;;;18.70;99.90;;;;;;5059693;28;20566;-73
2021/05/22 09:30:31;;;;;;;5.32;2.22;;;18.30;99.90;;;;;;5067401;28;20203;-73
2021/05/22 09:32:58;;;;;;;4.82;2.03;;;18.40;99.90;;;;;;5069543;28;20206;-72
2021/05/22 09:35:26;;;;;;;7.70;2.60;;;18.30;99.90;;;;;;5070513;28;20228;-73
2021/05/22 09:37:54;;;;;;;9.30;3.63;;;17.60;99.90;;;;;;5070638;28;20611;-73
2021/05/22 09:40:27;;;;;;;8.70;2.78;;;17.30;99.90;;;;;;5070225;28;20561;-73
2021/05/22 09:42:58;;;;;;;8.77;2.75;;;17.00;99.90;;;;;;5068375;28;20230;-73
2021/05/22 09:45:30;;;;;;;4.38;1.85;;;17.30;99.90;;;;;;5079471;28;20245;-73
2021/05/22 09:47:59;;;;;;;5.20;1.80;;;18.20;99.90;;;;;;5074397;28;20213;-73
2021/05/22 09:50:31;;;;;;;4.45;1.85;;;17.50;99.90;;;;;;5070513;28;20688;-72
2021/05/22 09:52:59;;;;;;;4.82;1.98;;;18.40;99.90;;;;;;5070539;28;20681;-73
2021/05/22 09:55:26;;;;;;;6.53;1.90;;;18.80;99.90;;;;;;5070219;28;20210;-72
2021/05/22 09:57:56;;;;;;;4.28;1.80;;;19.00;99.90;;;;;;5070925;28;20206;-70
2021/05/22 10:00:24;;;;;;;3.53;1.95;;;19.30;99.90;;;;;;5069902;28;20202;-70
2021/05/22 10:02:53;;;;;;;3.72;2.40;;;19.50;99.90;;;;;;5070456;28;20708;-71
2021/05/22 10:05:22;;;;;;;5.57;1.92;;;20.40;99.90;;;;;;5070048;28;20284;-71
2021/05/22 10:07:50;;;;;;;4.45;2.47;;;19.90;99.90;;;;;;5070914;28;20198;-70
2021/05/22 10:10:17;;;;;;;6.40;2.28;;;20.50;99.90;;;;;;5070187;28;20202;-70
2021/05/22 10:12:46;;;;;;;6.43;2.42;;;22.00;99.90;;;;;;5070306;28;20655;-70
2021/05/22 10:15:14;;;;;;;3.33;1.58;;;21.20;99.90;;;;;;5069902;28;20583;-70
2021/05/22 10:17:42;;;;;;;4.38;2.17;;;20.40;99.90;;;;;;5070211;28;20202;-71
2021/05/22 10:20:11;;;;;;;5.25;2.05;;;21.80;99.90;;;;;;5068665;28;20670;-70
2021/05/22 10:22:37;;;;;;;4.85;1.80;;;23.70;99.90;;;;;;5058666;28;20260;-70
2021/05/22 10:25:06;;;;;;;6.25;2.20;;;22.10;99.90;;;;;;5070053;28;20216;-71
2021/05/22 10:27:33;;;;;;;5.55;1.70;;;19.50;99.90;;;;;;5070643;28;20238;-72
2021/05/22 10:30:00;;;;;;;2.47;1.77;;;19.80;99.90;;;;;;5070455;28;20721;-71
2021/05/22 10:32:27;;;;;;;5.50;2.08;;;21.10;99.90;;;;;;5069530;28;20213;-71
2021/05/22 10:34:55;;;;;;;11.98;3.00;;;19.30;99.90;;;;;;5061510;28;20224;-70
2021/05/22 10:37:44;;;;;;;3.70;2.25;;;18.80;99.90;;;;;;5068905;28;20202;-70
2021/05/22 10:40:13;;;;;;;4.07;2.00;;;18.60;99.90;;;;;;5063327;28;20218;-70
2021/05/22 10:42:51;;;;;;;3.67;2.13;;;18.40;99.90;;;;;;5069686;28;20662;-70
2021/05/22 10:45:29;;;;;;;4.22;2.10;;;18.50;99.90;;;;;;5061815;28;20251;-71
2021/05/22 10:47:58;;;;;;;2.88;2.17;;;19.20;99.90;;;;;;5068072;28;20708;-71
2021/05/22 10:50:49;;;;;;;4.18;1.90;;;19.10;99.90;;;;;;5069482;28;20238;-70
2021/05/22 10:53:24;;;;;;;4.78;1.65;;;19.30;99.90;;;;;;5052676;28;20206;-70
2021/05/22 10:56:14;;;;;;;5.05;1.77;;;19.50;99.90;;;;;;5070056;28;20206;-70
2021/05/22 10:59:12;;;;;;;2.58;2.22;;;19.20;99.90;;;;;;5069726;28;20202;-69
2021/05/22 11:01:43;;;;;;;2.85;1.60;;;18.50;99.90;;;;;;5069979;28;20206;-70
2021/05/22 11:04:28;;;;;;;3.80;1.92;;;18.30;99.90;;;;;;5069337;28;20230;-70
2021/05/22 11:06:56;;;;;;;4.35;1.60;;;18.20;99.90;;;;;;5069768;28;20662;-70
2021/05/22 11:09:57;;;;;;;5.32;2.08;;;18.70;99.90;;;;;;5069501;28;20246;-70
2021/05/22 11:12:47;;;;;;;6.38;2.65;;;19.10;99.90;;;;;;5027343;28;20220;-70
2021/05/22 11:15:40;;;;;;;3.00;1.60;;;18.80;99.90;;;;;;5027565;28;20211;-70
2021/05/22 11:18:07;;;;;;;5.82;1.90;;;18.40;99.90;;;;;;5056209;28;20214;-70
2021/05/22 11:20:35;;;;;;;3.38;1.92;;;19.00;99.90;;;;;;5069748;28;20682;-70
2021/05/22 11:23:02;;;;;;;2.88;2.10;;;19.60;99.90;;;;;;5070050;28;20217;-69
2021/05/22 11:25:45;;;;;;;4.93;1.23;;;19.30;99.90;;;;;;5064768;28;20264;-69
2021/05/22 11:28:18;;;;;;;3.88;1.80;;;19.10;99.90;;;;;;5056335;28;20205;-69
2021/05/22 11:30:46;;;;;;;4.18;1.60;;;18.40;99.90;;;;;;5070283;28;20223;-69
2021/05/22 11:33:28;;;;;;;2.35;1.88;;;18.40;99.90;;;;;;5059334;28;20684;-69
2021/05/22 11:35:56;;;;;;;3.30;1.65;;;18.20;99.90;;;;;;5073088;28;20214;-69
2021/05/22 11:38:34;;;;;;;9.60;2.95;;;17.90;99.90;;;;;;5066030;28;20211;-70
2021/05/22 11:41:10;;;;;;;5.35;2.35;;;17.80;99.90;;;;;;5071066;28;20339;-69
2021/05/22 11:43:41;;;;;;;6.15;1.92;;;18.20;99.90;;;;;;5071869;28;20229;-69
2021/05/22 11:46:10;;;;;;;7.72;2.00;;;18.70;99.90;;;;;;5071176;28;20206;-69
2021/05/22 11:48:39;;;;;;;5.47;1.80;;;18.70;99.90;;;;;;5072782;28;20221;-70
2021/05/22 11:51:19;;;;;;;3.88;1.58;;;18.70;99.90;;;;;;5072699;28;20206;-69
2021/05/22 11:53:50;;;;;;;4.47;1.63;;;18.10;99.90;;;;;;5060469;28;20210;-69
2021/05/22 11:56:18;;;;;;;7.22;2.15;;;17.90;99.90;;;;;;5072276;28;20827;-69
2021/05/22 11:58:47;;;;;;;6.40;1.77;;;18.00;99.90;;;;;;5073111;28;20214;-71
2021/05/22 12:01:16;;;;;;;4.80;1.70;;;18.70;99.90;;;;;;5072514;28;20217;-69
2021/05/22 12:03:44;;;;;;;4.40;1.75;;;19.10;99.90;;;;;;5072464;28;20226;-71
2021/05/22 12:06:21;;;;;;;5.28;1.42;;;19.20;99.90;;;;;;5072211;28;20665;-69
2021/05/22 12:09:00;;;;;;;3.22;1.60;;;19.10;99.90;;;;;;5072504;28;20721;-70
2021/05/22 12:11:30;;;;;;;4.22;1.60;;;19.30;99.90;;;;;;5072451;28;20217;-70
2021/05/22 12:13:58;;;;;;;4.45;1.48;;;19.60;99.90;;;;;;5072363;28;20280;-69
2021/05/22 12:16:25;;;;;;;4.55;1.75;;;19.30;99.90;;;;;;5071978;28;20225;-69
2021/05/22 12:18:53;;;;;;;2.33;1.63;;;19.30;99.90;;;;;;5072703;28;20624;-69
2021/05/22 12:21:29;;;;;;;4.85;2.15;;;19.40;99.90;;;;;;5070917;28;20567;-70
2021/05/22 12:24:02;;;;;;;4.13;2.50;;;19.40;99.90;;;;;;5069202;28;20244;-69
2021/05/22 12:26:30;;;;;;;3.75;1.40;;;19.50;99.90;;;;;;5059225;28;20607;-69
2021/05/22 12:28:57;;;;;;;4.28;2.03;;;19.60;99.90;;;;;;5072062;28;20301;-70
2021/05/22 12:31:24;;;;;;;6.15;2.20;;;20.00;99.90;;;;;;5071866;28;20206;-70
2021/05/22 12:34:02;;;;;;;3.42;1.88;;;20.50;99.90;;;;;;5072141;28;20580;-69
2021/05/22 12:36:32;;;;;;;5.47;2.15;;;20.50;99.90;;;;;;5071872;28;20214;-70
2021/05/22 12:38:58;;;;;;;7.03;1.75;;;20.00;99.90;;;;;;5072411;28;20700;-70
2021/05/22 12:41:37;;;;;;;4.60;2.08;;;19.40;99.90;;;;;;5070684;28;20211;-70
2021/05/22 12:44:04;;;;;;;3.78;1.90;;;19.20;99.90;;;;;;5071994;28;20236;-70
2021/05/22 12:46:32;;;;;;;4.13;1.58;;;18.70;99.90;;;;;;5072003;28;20585;-69
2021/05/22 12:49:13;;;;;;;5.47;1.65;;;18.40;99.90;;;;;;5072346;28;20308;-70
2021/05/22 12:51:41;;;;;;;3.40;1.63;;;18.30;99.90;;;;;;5071536;28;20198;-69